createdAt,value
2023-03-30T00:00:29.920Z,980.86
2023-03-30T00:01:29.906Z,980.87
2023-03-30T00:02:29.932Z,980.93
2023-03-30T00:03:29.983Z,980.89
2023-03-30T00:04:29.921Z,980.85
2023-03-30T00:05:29.854Z,980.80
2023-03-30T00:06:29.843Z,980.89
2023-03-30T00:07:29.838Z,980.88
2023-03-30T00:08:29.810Z,980.78
2023-03-30T00:09:29.829Z,980.79
2023-03-30T00:10:29.820Z,980.81
2023-03-30T00:11:29.818Z,980.76
2023-03-30T00:12:29.787Z,980.79
2023-03-30T00:13:29.775Z,980.77
2023-03-30T00:14:29.765Z,980.77
2023-03-30T00:15:29.752Z,980.79
2023-03-30T00:16:29.844Z,980.78
2023-03-30T00:17:29.769Z,980.72
2023-03-30T00:18:29.717Z,980.73
2023-03-30T00:19:29.732Z,980.76
2023-03-30T00:20:29.794Z,980.80
2023-03-30T00:21:29.709Z,980.76
2023-03-30T00:22:29.662Z,980.70
2023-03-30T00:23:29.673Z,980.74
2023-03-30T00:24:29.669Z,980.70
2023-03-30T00:25:29.663Z,980.73
2023-03-30T00:26:29.641Z,980.67
2023-03-30T00:27:29.621Z,980.68
2023-03-30T00:28:29.620Z,980.70
2023-03-30T00:29:29.601Z,980.67
2023-03-30T00:30:29.611Z,980.64
2023-03-30T00:31:29.598Z,980.70
2023-03-30T00:32:29.614Z,980.60
2023-03-30T00:33:44.132Z,980.60
2023-03-30T00:34:30.551Z,980.59
2023-03-30T00:35:29.556Z,980.57
2023-03-30T00:36:29.530Z,980.58
2023-03-30T00:37:29.519Z,980.56
2023-03-30T00:38:29.536Z,980.59
2023-03-30T00:39:29.497Z,980.51
2023-03-30T00:40:29.586Z,980.47
2023-03-30T00:41:29.485Z,980.43
2023-03-30T00:42:29.460Z,980.39
2023-03-30T00:43:29.460Z,980.34
2023-03-30T00:44:29.473Z,980.33
2023-03-30T00:45:29.434Z,980.30
2023-03-30T00:46:29.476Z,980.26
2023-03-30T00:47:29.436Z,980.29
2023-03-30T00:48:29.382Z,980.34
2023-03-30T00:49:29.390Z,980.25
2023-03-30T00:50:29.385Z,980.27
2023-03-30T00:51:29.373Z,980.27
2023-03-30T00:52:29.341Z,980.26
2023-03-30T00:53:29.327Z,980.20
2023-03-30T00:54:29.317Z,980.24
2023-03-30T00:55:29.335Z,980.27
2023-03-30T00:56:29.312Z,980.28
2023-03-30T00:57:29.321Z,980.30
2023-03-30T00:58:29.285Z,980.20
2023-03-30T00:59:29.265Z,980.21
2023-03-30T01:00:29.251Z,980.17
2023-03-30T01:01:29.406Z,980.10
2023-03-30T01:02:29.313Z,980.10
2023-03-30T01:03:29.299Z,980.01
2023-03-30T01:04:29.218Z,980.06
2023-03-30T01:05:29.199Z,980.02
2023-03-30T01:06:29.186Z,980.04
2023-03-30T01:07:29.184Z,980.06
2023-03-30T01:08:29.212Z,979.99
2023-03-30T01:09:29.169Z,980.05
2023-03-30T01:10:29.154Z,980.02
2023-03-30T01:11:29.165Z,980.08
2023-03-30T01:12:29.120Z,980.02
2023-03-30T01:13:29.125Z,980.04
2023-03-30T01:14:29.126Z,980.07
2023-03-30T01:15:29.118Z,980.02
2023-03-30T01:16:29.081Z,979.98
2023-03-30T01:17:29.120Z,980.03
2023-03-30T01:18:29.070Z,980.05
2023-03-30T01:19:29.077Z,979.98
2023-03-30T01:20:29.055Z,980.01
2023-03-30T01:21:29.038Z,979.97
2023-03-30T01:22:29.041Z,980.02
2023-03-30T01:23:29.035Z,980.02
2023-03-30T01:24:29.051Z,980.02
2023-03-30T01:25:28.980Z,979.99
2023-03-30T01:26:28.999Z,979.93
2023-03-30T01:27:28.986Z,980.02
2023-03-30T01:28:28.967Z,979.95
2023-03-30T01:29:28.944Z,980.11
2023-03-30T01:30:28.945Z,980.23
2023-03-30T01:31:29.042Z,980.24
2023-03-30T01:32:28.959Z,980.36
2023-03-30T01:33:28.905Z,980.41
2023-03-30T01:34:28.906Z,980.43
2023-03-30T01:35:28.976Z,980.52
2023-03-30T01:36:28.981Z,980.36
2023-03-30T01:37:28.884Z,980.46
2023-03-30T01:38:28.868Z,980.54
2023-03-30T01:39:28.841Z,980.33
2023-03-30T01:40:28.825Z,980.33
2023-03-30T01:41:28.856Z,980.20
2023-03-30T01:42:28.791Z,980.27
2023-03-30T01:43:28.832Z,980.20
2023-03-30T01:44:28.809Z,980.22
2023-03-30T01:45:29.479Z,980.15
2023-03-30T01:46:28.899Z,980.07
2023-03-30T01:47:28.818Z,980.05
2023-03-30T01:48:28.751Z,980.06
2023-03-30T01:49:28.747Z,980.04
2023-03-30T01:50:28.746Z,980.00
2023-03-30T01:51:28.713Z,980.04
2023-03-30T01:52:28.800Z,980.03
2023-03-30T01:53:28.695Z,980.08
2023-03-30T01:54:28.703Z,980.17
2023-03-30T01:55:28.690Z,980.21
2023-03-30T01:56:28.710Z,980.23
2023-03-30T01:57:28.662Z,980.26
2023-03-30T01:58:28.665Z,980.22
2023-03-30T01:59:28.641Z,980.26
2023-03-30T02:00:28.647Z,980.27
2023-03-30T02:01:28.640Z,980.17
2023-03-30T02:02:28.675Z,980.18
2023-03-30T02:03:28.829Z,980.24
2023-03-30T02:04:28.598Z,980.26
2023-03-30T02:05:28.599Z,980.11
2023-03-30T02:06:28.588Z,980.22
2023-03-30T02:07:28.547Z,980.21
2023-03-30T02:08:28.561Z,980.14
2023-03-30T02:09:28.566Z,980.16
2023-03-30T02:10:28.520Z,980.15
2023-03-30T02:11:28.520Z,980.22
2023-03-30T02:12:28.499Z,980.18
2023-03-30T02:13:28.490Z,980.16
2023-03-30T02:14:28.464Z,980.21
2023-03-30T02:15:28.493Z,980.22
2023-03-30T02:16:28.553Z,980.30
2023-03-30T02:17:28.467Z,980.37
2023-03-30T02:18:28.439Z,980.27
2023-03-30T02:19:28.434Z,980.29
2023-03-30T02:20:28.414Z,980.28
2023-03-30T02:21:28.395Z,980.31
2023-03-30T02:22:28.392Z,980.45
2023-03-30T02:23:28.400Z,980.31
2023-03-30T02:24:28.379Z,980.33
2023-03-30T02:25:28.374Z,980.32
2023-03-30T02:26:28.352Z,980.49
2023-03-30T02:27:28.343Z,980.44
2023-03-30T02:28:28.323Z,980.38
2023-03-30T02:29:28.308Z,980.43
2023-03-30T02:30:28.322Z,980.45
2023-03-30T02:31:28.335Z,980.47
2023-03-30T02:32:28.310Z,980.47
2023-03-30T02:33:28.287Z,980.41
2023-03-30T02:34:28.260Z,980.49
2023-03-30T02:35:28.252Z,980.47
2023-03-30T02:36:28.288Z,980.48
2023-03-30T02:37:28.236Z,980.39
2023-03-30T02:38:28.216Z,980.57
2023-03-30T02:39:28.207Z,980.40
2023-03-30T02:40:28.200Z,980.40
2023-03-30T02:41:28.201Z,980.47
2023-03-30T02:42:28.173Z,980.42
2023-03-30T02:43:28.177Z,980.40
2023-03-30T02:44:28.155Z,980.40
2023-03-30T02:45:28.261Z,980.48
2023-03-30T02:46:28.113Z,980.35
2023-03-30T02:47:28.196Z,980.37
2023-03-30T02:48:28.106Z,980.30
2023-03-30T02:49:28.098Z,980.36
2023-03-30T02:50:28.084Z,980.33
2023-03-30T02:51:28.070Z,980.41
2023-03-30T02:52:28.088Z,980.45
2023-03-30T02:53:28.055Z,980.40
2023-03-30T02:54:28.043Z,980.40
2023-03-30T02:55:28.032Z,980.32
2023-03-30T02:56:28.029Z,980.37
2023-03-30T02:57:28.084Z,980.30
2023-03-30T02:58:28.012Z,980.28
2023-03-30T02:59:28.015Z,980.30
2023-03-30T03:00:27.968Z,980.26
2023-03-30T03:01:27.984Z,980.17
2023-03-30T03:02:27.986Z,980.26
2023-03-30T03:03:28.024Z,980.18
2023-03-30T03:04:27.946Z,980.21
2023-03-30T03:05:27.918Z,980.18
2023-03-30T03:06:27.908Z,980.12
2023-03-30T03:07:27.912Z,979.92
2023-03-30T03:08:27.883Z,979.90
2023-03-30T03:09:27.915Z,979.96
2023-03-30T03:10:27.874Z,979.82
2023-03-30T03:11:27.866Z,979.91
2023-03-30T03:12:27.835Z,979.95
2023-03-30T03:13:27.844Z,979.99
2023-03-30T03:14:27.833Z,979.95
2023-03-30T03:15:27.822Z,979.95
2023-03-30T03:16:27.833Z,979.90
2023-03-30T03:17:27.859Z,979.86
2023-03-30T03:18:27.778Z,979.82
2023-03-30T03:19:27.771Z,979.86
2023-03-30T03:20:27.765Z,979.87
2023-03-30T03:21:27.752Z,979.85
2023-03-30T03:22:27.739Z,979.77
2023-03-30T03:23:27.748Z,979.71
2023-03-30T03:24:27.705Z,979.73
2023-03-30T03:25:27.708Z,979.68
2023-03-30T03:26:27.689Z,979.68
2023-03-30T03:27:27.696Z,979.69
2023-03-30T03:28:27.681Z,979.73
2023-03-30T03:29:27.676Z,979.78
2023-03-30T03:30:27.651Z,979.81
2023-03-30T03:31:27.651Z,979.81
2023-03-30T03:32:27.681Z,979.75
2023-03-30T03:33:27.626Z,979.66
2023-03-30T03:34:27.597Z,979.60
2023-03-30T03:35:27.621Z,979.72
2023-03-30T03:36:27.590Z,979.75
2023-03-30T03:37:27.581Z,979.75
2023-03-30T03:38:27.565Z,979.61
2023-03-30T03:39:27.548Z,979.52
2023-03-30T03:40:27.541Z,979.60
2023-03-30T03:41:27.526Z,979.59
2023-03-30T03:42:27.543Z,979.56
2023-03-30T03:43:27.512Z,979.64
2023-03-30T03:44:27.490Z,979.52
2023-03-30T03:45:27.484Z,979.52
2023-03-30T03:46:27.541Z,979.59
2023-03-30T03:47:27.492Z,979.63
2023-03-30T03:48:27.453Z,979.56
2023-03-30T03:49:27.457Z,979.56
2023-03-30T03:50:27.432Z,979.58
2023-03-30T03:51:27.424Z,979.65
2023-03-30T03:52:27.412Z,979.64
2023-03-30T03:53:27.406Z,979.68
2023-03-30T03:54:27.403Z,979.69
2023-03-30T03:55:27.382Z,979.75
2023-03-30T03:56:27.376Z,979.74
2023-03-30T03:57:27.413Z,979.77
2023-03-30T03:58:27.376Z,979.76
2023-03-30T03:59:27.351Z,979.79
2023-03-30T04:00:27.357Z,979.72
2023-03-30T04:01:27.316Z,979.72
2023-03-30T04:02:27.401Z,979.74
2023-03-30T04:03:27.301Z,979.68
2023-03-30T04:04:27.351Z,979.77
2023-03-30T04:05:27.267Z,979.73
2023-03-30T04:06:27.251Z,979.76
2023-03-30T04:07:27.263Z,979.76
2023-03-30T04:08:27.254Z,979.70
2023-03-30T04:09:27.220Z,979.73
2023-03-30T04:10:27.210Z,979.66
2023-03-30T04:11:27.216Z,979.58
2023-03-30T04:12:27.193Z,979.58
2023-03-30T04:13:27.185Z,979.53
2023-03-30T04:14:27.194Z,979.59
2023-03-30T04:15:27.160Z,979.53
2023-03-30T04:16:27.170Z,979.48
2023-03-30T04:17:27.174Z,979.44
2023-03-30T04:18:27.122Z,979.42
2023-03-30T04:19:27.141Z,979.38
2023-03-30T04:20:27.138Z,979.40
2023-03-30T04:21:27.099Z,979.31
2023-03-30T04:22:27.092Z,979.18
2023-03-30T04:23:27.071Z,979.23
2023-03-30T04:24:27.060Z,979.18
2023-03-30T04:25:27.055Z,979.09
2023-03-30T04:26:27.049Z,978.98
2023-03-30T04:27:27.041Z,979.07
2023-03-30T04:28:27.030Z,979.03
2023-03-30T04:29:27.001Z,979.04
2023-03-30T04:30:26.996Z,978.89
2023-03-30T04:31:27.058Z,979.01
2023-03-30T04:32:27.027Z,979.00
2023-03-30T04:33:26.974Z,978.94
2023-03-30T04:34:26.972Z,978.92
2023-03-30T04:35:26.961Z,978.86
2023-03-30T04:36:26.928Z,978.83
2023-03-30T04:37:26.932Z,978.82
2023-03-30T04:38:26.935Z,978.81
2023-03-30T04:39:26.910Z,978.72
2023-03-30T04:40:26.895Z,978.67
2023-03-30T04:41:26.878Z,978.66
2023-03-30T04:42:26.896Z,978.66
2023-03-30T04:43:26.864Z,978.67
2023-03-30T04:44:27.202Z,978.62
2023-03-30T04:45:26.886Z,978.70
2023-03-30T04:46:26.817Z,978.69
2023-03-30T04:47:26.821Z,978.66
2023-03-30T04:48:26.815Z,978.67
2023-03-30T04:49:26.800Z,978.52
2023-03-30T04:50:26.809Z,978.50
2023-03-30T04:51:26.796Z,978.56
2023-03-30T04:52:26.780Z,978.59
2023-03-30T04:53:26.773Z,978.54
2023-03-30T04:54:26.753Z,978.55
2023-03-30T04:55:26.723Z,978.49
2023-03-30T04:56:26.731Z,978.51
2023-03-30T04:57:26.750Z,978.62
2023-03-30T04:58:26.709Z,978.65
2023-03-30T04:59:26.694Z,978.70
2023-03-30T05:00:26.676Z,978.68
2023-03-30T05:01:26.829Z,978.65
2023-03-30T05:02:26.747Z,978.71
2023-03-30T05:03:26.772Z,978.70
2023-03-30T05:04:26.692Z,978.72
2023-03-30T05:05:26.665Z,978.69
2023-03-30T05:06:26.616Z,978.67
2023-03-30T05:07:26.934Z,978.67
2023-03-30T05:08:27.065Z,978.75
2023-03-30T05:09:26.869Z,978.71
2023-03-30T05:10:26.568Z,978.78
2023-03-30T05:11:26.587Z,978.79
2023-03-30T05:12:26.564Z,978.80
2023-03-30T05:13:26.576Z,978.80
2023-03-30T05:14:26.558Z,978.75
2023-03-30T05:15:26.504Z,978.68
2023-03-30T05:16:26.558Z,978.63
2023-03-30T05:17:26.509Z,978.53
2023-03-30T05:18:26.489Z,978.53
2023-03-30T05:19:26.494Z,978.53
2023-03-30T05:20:26.491Z,978.53
2023-03-30T05:21:26.481Z,978.47
2023-03-30T05:22:26.921Z,978.54
2023-03-30T05:23:26.460Z,978.42
2023-03-30T05:24:26.482Z,978.46
2023-03-30T05:25:26.530Z,978.50
2023-03-30T05:26:26.436Z,978.52
2023-03-30T05:27:26.425Z,978.52
2023-03-30T05:28:26.452Z,978.52
2023-03-30T05:29:26.376Z,978.52
2023-03-30T05:30:26.356Z,978.50
2023-03-30T05:31:26.558Z,978.52
2023-03-30T05:32:26.531Z,978.47
2023-03-30T05:33:26.410Z,978.39
2023-03-30T05:34:26.382Z,978.37
2023-03-30T05:35:26.332Z,978.38
2023-03-30T05:36:26.284Z,978.35
2023-03-30T05:37:26.278Z,978.30
2023-03-30T05:38:26.296Z,978.23
2023-03-30T05:39:26.246Z,978.27
2023-03-30T05:40:26.240Z,978.25
2023-03-30T05:41:26.228Z,978.24
2023-03-30T05:42:26.229Z,978.22
2023-03-30T05:43:26.195Z,978.24
2023-03-30T05:44:26.204Z,978.23
2023-03-30T05:45:26.175Z,978.23
2023-03-30T05:46:26.255Z,978.25
2023-03-30T05:47:26.208Z,978.16
2023-03-30T05:48:26.155Z,978.15
2023-03-30T05:49:26.149Z,978.15
2023-03-30T05:50:26.159Z,978.18
2023-03-30T05:51:26.125Z,978.27
2023-03-30T05:52:26.112Z,978.28
2023-03-30T05:53:26.101Z,978.30
2023-03-30T05:54:26.115Z,978.37
2023-03-30T05:55:26.761Z,978.36
2023-03-30T05:56:26.079Z,978.45
2023-03-30T05:57:26.810Z,978.43
2023-03-30T05:58:26.065Z,978.56
2023-03-30T05:59:27.169Z,978.51
2023-03-30T06:00:26.060Z,978.54
2023-03-30T06:01:27.041Z,978.60
2023-03-30T06:02:26.104Z,978.69
2023-03-30T06:03:27.111Z,978.67
2023-03-30T06:04:26.055Z,978.64
2023-03-30T06:05:27.021Z,978.72
2023-03-30T06:06:25.958Z,978.89
2023-03-30T06:07:25.939Z,978.90
2023-03-30T06:08:25.975Z,978.92
2023-03-30T06:09:25.936Z,978.99
2023-03-30T06:10:25.933Z,979.02
2023-03-30T06:11:25.895Z,979.10
2023-03-30T06:12:25.912Z,979.24
2023-03-30T06:13:25.871Z,979.16
2023-03-30T06:14:25.913Z,979.25
2023-03-30T06:15:25.863Z,979.34
2023-03-30T06:16:25.889Z,979.50
2023-03-30T06:17:25.959Z,979.51
2023-03-30T06:18:25.836Z,979.59
2023-03-30T06:19:25.822Z,979.57
2023-03-30T06:20:25.829Z,979.52
2023-03-30T06:21:25.805Z,979.55
2023-03-30T06:22:25.778Z,979.63
2023-03-30T06:23:25.771Z,979.63
2023-03-30T06:24:25.771Z,979.65
2023-03-30T06:25:25.753Z,979.64
2023-03-30T06:26:25.752Z,979.56
2023-03-30T06:27:25.732Z,979.50
2023-03-30T06:28:26.141Z,979.48
2023-03-30T06:29:25.710Z,979.45
2023-03-30T06:30:25.828Z,979.48
2023-03-30T06:31:25.777Z,979.55
2023-03-30T06:32:26.382Z,979.43
2023-03-30T06:33:25.681Z,979.40
2023-03-30T06:34:26.684Z,979.40
2023-03-30T06:35:25.661Z,979.44
2023-03-30T06:36:44.340Z,979.40
2023-03-30T06:37:26.637Z,979.61
2023-03-30T06:38:26.565Z,979.69
2023-03-30T06:39:25.625Z,979.79
2023-03-30T06:40:26.308Z,979.97
2023-03-30T06:41:25.576Z,980.03
2023-03-30T06:42:25.613Z,980.05
2023-03-30T06:43:25.587Z,980.03
2023-03-30T06:44:25.581Z,980.02
2023-03-30T06:45:25.540Z,980.04
2023-03-30T06:46:25.791Z,979.96
2023-03-30T06:47:25.837Z,979.98
2023-03-30T06:48:25.504Z,979.88
2023-03-30T06:49:25.479Z,979.89
2023-03-30T06:50:25.475Z,979.93
2023-03-30T06:51:25.553Z,980.03
2023-03-30T06:52:25.492Z,980.08
2023-03-30T06:53:25.446Z,980.17
2023-03-30T06:54:25.453Z,980.10
2023-03-30T06:55:25.441Z,980.20
2023-03-30T06:56:25.448Z,980.26
2023-03-30T06:57:25.495Z,980.23
2023-03-30T06:58:25.399Z,980.26
2023-03-30T06:59:25.416Z,980.20
2023-03-30T07:00:25.420Z,980.19
2023-03-30T07:01:25.429Z,980.28
2023-03-30T07:02:25.412Z,980.32
2023-03-30T07:03:25.487Z,980.34
2023-03-30T07:04:25.354Z,980.40
2023-03-30T07:05:25.328Z,980.43
2023-03-30T07:06:25.308Z,980.42
2023-03-30T07:07:25.309Z,980.55
2023-03-30T07:08:25.304Z,980.53
2023-03-30T07:09:25.275Z,980.59
2023-03-30T07:10:25.299Z,980.60
2023-03-30T07:11:25.275Z,980.65
2023-03-30T07:12:25.245Z,980.72
2023-03-30T07:13:25.232Z,980.68
2023-03-30T07:14:25.249Z,980.77
2023-03-30T07:15:25.251Z,980.61
2023-03-30T07:16:25.244Z,980.60
2023-03-30T07:17:26.876Z,980.60
2023-03-30T07:18:25.194Z,980.66
2023-03-30T07:19:25.159Z,980.74
2023-03-30T07:20:25.159Z,980.73
2023-03-30T07:21:25.149Z,980.71
2023-03-30T07:22:25.155Z,980.73
2023-03-30T07:23:25.157Z,980.83
2023-03-30T07:24:25.137Z,980.89
2023-03-30T07:25:25.136Z,980.81
2023-03-30T07:26:25.105Z,980.80
2023-03-30T07:27:25.531Z,980.94
2023-03-30T07:28:25.076Z,980.88
2023-03-30T07:29:25.069Z,981.05
2023-03-30T07:30:25.067Z,980.97
2023-03-30T07:31:25.077Z,981.04
2023-03-30T07:32:25.151Z,981.06
2023-03-30T07:33:25.049Z,981.11
2023-03-30T07:34:25.001Z,981.15
2023-03-30T07:35:24.995Z,981.12
2023-03-30T07:36:25.700Z,981.05
2023-03-30T07:37:24.980Z,980.91
2023-03-30T07:38:24.963Z,980.85
2023-03-30T07:39:24.961Z,980.80
2023-03-30T07:40:25.078Z,980.75
2023-03-30T07:41:24.936Z,980.67
2023-03-30T07:42:24.935Z,980.74
2023-03-30T07:43:24.951Z,980.81
2023-03-30T07:44:24.912Z,980.88
2023-03-30T07:45:25.762Z,980.90
2023-03-30T07:46:25.000Z,980.73
2023-03-30T07:47:26.000Z,980.62
2023-03-30T07:48:24.869Z,980.58
2023-03-30T07:49:25.559Z,980.63
2023-03-30T07:50:24.901Z,980.68
2023-03-30T07:51:27.841Z,980.66
2023-03-30T07:52:24.856Z,980.63
2023-03-30T07:53:25.870Z,980.65
2023-03-30T07:54:24.814Z,980.62
2023-03-30T07:55:25.504Z,980.61
2023-03-30T07:56:24.795Z,980.64
2023-03-30T07:57:24.851Z,980.62
2023-03-30T07:58:24.786Z,980.64
2023-03-30T07:59:24.759Z,980.74
2023-03-30T08:00:24.783Z,980.80
2023-03-30T08:01:24.750Z,980.71
2023-03-30T08:02:24.742Z,980.63
2023-03-30T08:03:24.889Z,980.71
2023-03-30T08:04:26.321Z,980.88
2023-03-30T08:05:24.670Z,980.92
2023-03-30T08:06:24.664Z,980.91
2023-03-30T08:07:24.650Z,980.82
2023-03-30T08:08:24.650Z,980.79
2023-03-30T08:09:24.630Z,980.87
2023-03-30T08:10:24.635Z,980.90
2023-03-30T08:11:24.613Z,980.97
2023-03-30T08:12:24.600Z,981.13
2023-03-30T08:13:24.594Z,981.28
2023-03-30T08:14:24.635Z,981.34
2023-03-30T08:15:24.580Z,981.42
2023-03-30T08:16:24.567Z,981.54
2023-03-30T08:17:24.576Z,981.56
2023-03-30T08:18:26.000Z,981.61
2023-03-30T08:19:24.505Z,981.56
2023-03-30T08:20:24.539Z,981.58
2023-03-30T08:21:24.492Z,981.60
2023-03-30T08:22:24.502Z,981.62
2023-03-30T08:23:24.490Z,981.68
2023-03-30T08:24:24.471Z,981.69
2023-03-30T08:25:24.485Z,981.68
2023-03-30T08:26:24.455Z,981.71
2023-03-30T08:27:24.505Z,981.66
2023-03-30T08:28:24.431Z,981.70
2023-03-30T08:29:24.408Z,981.66
2023-03-30T08:30:24.403Z,981.63
2023-03-30T08:31:24.453Z,981.58
2023-03-30T08:32:24.412Z,981.53
2023-03-30T08:33:24.364Z,981.51
2023-03-30T08:34:24.348Z,981.54
2023-03-30T08:35:24.335Z,981.43
2023-03-30T08:36:24.343Z,981.42
2023-03-30T08:37:24.331Z,981.29
2023-03-30T08:38:24.323Z,981.34
2023-03-30T08:39:24.300Z,981.32
2023-03-30T08:40:24.287Z,981.28
2023-03-30T08:41:24.276Z,981.16
2023-03-30T08:42:24.305Z,981.08
2023-03-30T08:43:24.271Z,981.10
2023-03-30T08:44:24.246Z,981.00
2023-03-30T08:45:24.251Z,980.92
2023-03-30T08:46:24.292Z,980.87
2023-03-30T08:47:24.230Z,980.90
2023-03-30T08:48:24.209Z,980.86
2023-03-30T08:49:24.197Z,980.86
2023-03-30T08:50:24.187Z,980.87
2023-03-30T08:51:24.211Z,981.02
2023-03-30T08:52:24.173Z,980.89
2023-03-30T08:53:24.134Z,980.87
2023-03-30T08:54:24.141Z,980.91
2023-03-30T08:55:24.137Z,980.95
2023-03-30T08:56:24.138Z,980.95
2023-03-30T08:57:24.159Z,980.86
2023-03-30T08:58:24.095Z,980.75
2023-03-30T08:59:24.078Z,980.64
2023-03-30T09:00:24.067Z,980.64
2023-03-30T09:01:24.101Z,980.69
2023-03-30T09:02:24.037Z,980.61
2023-03-30T09:03:24.041Z,980.58
2023-03-30T09:04:24.025Z,980.66
2023-03-30T09:05:24.044Z,980.70
2023-03-30T09:06:24.024Z,980.73
2023-03-30T09:07:24.007Z,980.68
2023-03-30T09:08:23.971Z,980.66
2023-03-30T09:09:23.976Z,980.64
2023-03-30T09:10:23.963Z,980.53
2023-03-30T09:11:23.939Z,980.53
2023-03-30T09:12:23.946Z,980.53
2023-03-30T09:13:23.955Z,980.45
2023-03-30T09:14:23.921Z,980.45
2023-03-30T09:15:23.917Z,980.52
2023-03-30T09:16:23.924Z,980.63
2023-03-30T09:17:23.878Z,980.76
2023-03-30T09:18:23.883Z,980.76
2023-03-30T09:19:23.887Z,980.77
2023-03-30T09:20:23.856Z,980.77
2023-03-30T09:21:23.846Z,980.71
2023-03-30T09:22:23.840Z,980.72
2023-03-30T09:23:23.818Z,980.73
2023-03-30T09:24:23.830Z,980.74
2023-03-30T09:25:23.819Z,980.74
2023-03-30T09:26:23.775Z,980.69
2023-03-30T09:27:23.775Z,980.72
2023-03-30T09:28:23.754Z,980.77
2023-03-30T09:29:23.765Z,980.81
2023-03-30T09:30:23.763Z,980.79
2023-03-30T09:31:23.807Z,980.81
2023-03-30T09:32:23.719Z,980.70
2023-03-30T09:33:23.700Z,980.62
2023-03-30T09:34:23.715Z,980.66
2023-03-30T09:35:23.701Z,980.71
2023-03-30T09:36:23.723Z,980.74
2023-03-30T09:37:23.688Z,980.80
2023-03-30T09:38:23.655Z,980.78
2023-03-30T09:39:23.688Z,980.89
2023-03-30T09:40:23.626Z,980.91
2023-03-30T09:41:23.623Z,980.87
2023-03-30T09:42:23.629Z,980.88
2023-03-30T09:43:23.604Z,980.93
2023-03-30T09:44:23.600Z,980.99
2023-03-30T09:45:23.590Z,981.09
2023-03-30T09:46:23.661Z,981.11
2023-03-30T09:47:23.613Z,981.09
2023-03-30T09:48:23.551Z,981.01
2023-03-30T09:49:23.549Z,981.04
2023-03-30T09:50:23.561Z,981.08
2023-03-30T09:51:23.527Z,981.20
2023-03-30T09:52:23.513Z,981.16
2023-03-30T09:53:23.512Z,981.15
2023-03-30T09:54:23.474Z,981.16
2023-03-30T09:55:23.482Z,981.11
2023-03-30T09:56:23.494Z,981.19
2023-03-30T09:57:23.505Z,981.20
2023-03-30T09:58:23.476Z,981.26
2023-03-30T09:59:23.425Z,981.23
2023-03-30T10:00:23.451Z,981.21
2023-03-30T10:01:23.439Z,981.17
2023-03-30T10:02:23.449Z,981.16
2023-03-30T10:03:23.556Z,981.24
2023-03-30T10:04:23.451Z,981.18
2023-03-30T10:05:23.375Z,981.20
2023-03-30T10:06:23.366Z,981.18
2023-03-30T10:07:23.351Z,981.14
2023-03-30T10:08:25.160Z,981.16
2023-03-30T10:09:23.334Z,981.19
2023-03-30T10:10:23.357Z,981.13
2023-03-30T10:11:23.308Z,981.15
2023-03-30T10:12:23.288Z,981.16
2023-03-30T10:13:23.283Z,981.20
2023-03-30T10:14:23.263Z,981.13
2023-03-30T10:15:23.261Z,981.18
2023-03-30T10:16:23.288Z,981.19
2023-03-30T10:17:23.268Z,981.17
2023-03-30T10:18:23.241Z,981.15
2023-03-30T10:19:23.249Z,981.06
2023-03-30T10:20:23.199Z,981.05
2023-03-30T10:21:23.183Z,980.97
2023-03-30T10:22:23.181Z,981.05
2023-03-30T10:23:23.172Z,981.01
2023-03-30T10:24:23.147Z,980.97
2023-03-30T10:25:23.141Z,980.97
2023-03-30T10:26:23.142Z,980.97
2023-03-30T10:27:23.128Z,980.96
2023-03-30T10:28:23.130Z,980.94
2023-03-30T10:29:23.105Z,980.83
2023-03-30T10:30:23.098Z,980.73
2023-03-30T10:31:25.549Z,980.83
2023-03-30T10:32:23.098Z,980.85
2023-03-30T10:33:23.079Z,980.84
2023-03-30T10:34:23.041Z,980.81
2023-03-30T10:35:23.036Z,980.79
2023-03-30T10:36:23.062Z,980.79
2023-03-30T10:37:23.046Z,980.77
2023-03-30T10:38:22.996Z,980.71
2023-03-30T10:39:23.005Z,980.57
2023-03-30T10:40:23.007Z,980.67
2023-03-30T10:41:22.979Z,980.66
2023-03-30T10:42:22.969Z,980.72
2023-03-30T10:43:22.948Z,980.57
2023-03-30T10:44:22.945Z,980.72
2023-03-30T10:45:22.939Z,980.73
2023-03-30T10:46:23.509Z,980.73
2023-03-30T10:47:23.052Z,980.73
2023-03-30T10:48:22.984Z,980.72
2023-03-30T10:49:22.890Z,980.68
2023-03-30T10:50:22.873Z,980.67
2023-03-30T10:51:22.902Z,980.66
2023-03-30T10:52:22.866Z,980.74
2023-03-30T10:53:22.863Z,980.65
2023-03-30T10:54:22.860Z,980.69
2023-03-30T10:55:22.828Z,980.57
2023-03-30T10:56:22.811Z,980.61
2023-03-30T10:57:22.858Z,980.57
2023-03-30T10:58:22.801Z,980.56
2023-03-30T10:59:22.782Z,980.54
2023-03-30T11:00:22.764Z,980.48
2023-03-30T11:01:22.826Z,980.44
2023-03-30T11:02:22.820Z,980.35
2023-03-30T11:03:22.831Z,980.32
2023-03-30T11:04:24.087Z,980.41
2023-03-30T11:05:22.734Z,980.43
2023-03-30T11:06:22.721Z,980.44
2023-03-30T11:07:22.704Z,980.44
2023-03-30T11:08:22.661Z,980.57
2023-03-30T11:09:22.714Z,980.65
2023-03-30T11:10:22.644Z,980.62
2023-03-30T11:11:22.654Z,980.67
2023-03-30T11:12:22.632Z,980.68
2023-03-30T11:13:22.643Z,980.53
2023-03-30T11:14:22.613Z,980.57
2023-03-30T11:15:22.597Z,980.61
2023-03-30T11:16:22.606Z,980.59
2023-03-30T11:17:22.598Z,980.66
2023-03-30T11:18:22.563Z,980.69
2023-03-30T11:19:22.634Z,980.73
2023-03-30T11:20:22.575Z,980.73
2023-03-30T11:21:22.537Z,980.80
2023-03-30T11:22:22.542Z,980.73
2023-03-30T11:23:22.512Z,980.81
2023-03-30T11:24:22.532Z,980.79
2023-03-30T11:25:22.484Z,980.70
2023-03-30T11:26:22.484Z,980.75
2023-03-30T11:27:22.474Z,980.66
2023-03-30T11:28:22.477Z,980.70
2023-03-30T11:29:22.444Z,980.77
2023-03-30T11:30:22.428Z,980.79
2023-03-30T11:31:23.166Z,980.68
2023-03-30T11:32:22.436Z,980.64
2023-03-30T11:33:22.409Z,980.71
2023-03-30T11:34:22.403Z,980.64
2023-03-30T11:35:22.380Z,980.70
2023-03-30T11:36:22.424Z,980.76
2023-03-30T11:37:22.370Z,980.75
2023-03-30T11:38:22.366Z,980.81
2023-03-30T11:39:31.590Z,980.88
2023-03-30T11:40:25.585Z,980.76
2023-03-30T11:41:22.313Z,980.80
2023-03-30T11:42:23.391Z,980.95
2023-03-30T11:43:22.444Z,980.87
2023-03-30T11:44:22.382Z,980.82
2023-03-30T11:45:22.290Z,980.93
2023-03-30T11:46:22.321Z,980.83
2023-03-30T11:47:22.299Z,981.07
2023-03-30T11:48:23.817Z,980.82
2023-03-30T11:49:22.248Z,980.84
2023-03-30T11:50:22.234Z,980.82
2023-03-30T11:51:22.235Z,980.92
2023-03-30T11:52:22.193Z,980.57
2023-03-30T11:53:22.205Z,980.70
2023-03-30T11:54:22.184Z,980.72
2023-03-30T11:55:22.200Z,980.83
2023-03-30T11:56:23.446Z,980.79
2023-03-30T11:57:22.273Z,980.91
2023-03-30T11:58:22.140Z,980.85
2023-03-30T11:59:22.119Z,980.90
2023-03-30T12:00:22.119Z,980.87
2023-03-30T12:01:22.141Z,980.85
2023-03-30T12:02:22.139Z,980.89
2023-03-30T12:03:22.149Z,980.93
2023-03-30T12:04:22.126Z,980.94
2023-03-30T12:05:22.074Z,980.86
2023-03-30T12:06:22.044Z,980.97
2023-03-30T12:07:22.056Z,980.97
2023-03-30T12:08:22.026Z,980.85
2023-03-30T12:09:22.027Z,980.88
2023-03-30T12:10:21.997Z,980.89
2023-03-30T12:11:22.007Z,980.93
2023-03-30T12:12:21.999Z,980.84
2023-03-30T12:13:21.968Z,980.87
2023-03-30T12:14:21.977Z,980.85
2023-03-30T12:15:21.960Z,980.73
2023-03-30T12:16:21.975Z,980.73
2023-03-30T12:17:22.058Z,980.69
2023-03-30T12:18:21.926Z,980.88
2023-03-30T12:19:21.914Z,980.75
2023-03-30T12:20:21.911Z,981.03
2023-03-30T12:21:21.894Z,980.79
2023-03-30T12:22:21.891Z,980.81
2023-03-30T12:23:21.873Z,980.76
2023-03-30T12:24:21.843Z,980.76
2023-03-30T12:25:22.043Z,980.74
2023-03-30T12:26:21.845Z,980.85
2023-03-30T12:27:21.815Z,980.95
2023-03-30T12:28:21.814Z,980.53